Time;durP1;ratioP1;P1;durP2;ratioP2;P2;SDS_P1;SDS_P2;PMS_P1;PMS_P2;Temp;Humidity;BMP_temperature;BMP_pressure;BME280_temperature;BME280_humidity;BME280_pressure;Samples;Min_cycle;Max_cycle;Signal;HPM_P1;HPM_P2
2024/02/25 00:01:36;;;;;;;;;28.25;19.75;;;;;-143.90;100.00;75792.50;4982715;28;101909;-73
2024/02/25 00:04:03;;;;;;;;;29.00;20.75;;;;;-143.90;100.00;75792.50;4970711;28;103425;-72
2024/02/25 00:06:30;;;;;;;;;27.50;23.00;;;;;-143.90;100.00;75796.63;4980516;28;101843;-73
2024/02/25 00:08:57;;;;;;;;;36.33;31.00;;;;;-143.90;100.00;75802.81;4974884;28;101694;-73
2024/02/25 00:11:23;;;;;;;;;53.67;41.33;;;;;-143.90;100.00;75817.31;4974647;28;104068;-73
2024/02/25 00:13:50;;;;;;;;;51.00;39.33;;;;;-143.90;100.00;75800.75;4971978;28;103591;-73
2024/02/25 00:16:17;;;;;;;;;59.00;46.00;;;;;-143.90;100.00;75800.75;4972669;28;101554;-73
2024/02/25 00:18:44;;;;;;;;;67.00;51.00;;;;;-143.90;100.00;75798.69;4977386;28;101783;-73
2024/02/25 00:21:11;;;;;;;;;65.33;51.00;;;;;-143.90;100.00;75794.56;4952375;28;101803;-73
2024/02/25 00:23:38;;;;;;;;;69.33;52.00;;;;;-143.90;100.00;75788.34;4974766;28;103317;-73
2024/02/25 00:26:04;;;;;;;;;69.33;51.33;;;;;-143.90;100.00;75788.34;4973292;28;101903;-73
2024/02/25 00:28:31;;;;;;;;;66.67;47.00;;;;;-143.90;100.00;75784.22;4982748;28;101997;-73
2024/02/25 00:30:58;;;;;;;;;68.67;50.33;;;;;-143.90;100.00;75771.81;4968307;28;101900;-73
2024/02/25 00:33:24;;;;;;;;;64.00;49.33;;;;;-143.90;100.00;75763.53;4969647;28;103583;-73
2024/02/25 00:35:52;;;;;;;;;60.33;46.33;;;;;-143.90;100.00;75755.28;4971520;28;102134;-73
2024/02/25 00:38:18;;;;;;;;;44.67;39.00;;;;;-143.90;100.00;75749.06;4978266;28;102020;-73
2024/02/25 00:40:45;;;;;;;;;40.33;33.33;;;;;-143.90;100.00;75740.78;4970398;28;101617;-73
2024/02/25 00:43:26;;;;;;;;;61.33;50.00;;;;;-143.90;100.00;75751.13;4964896;28;103279;-74
2024/02/25 00:45:53;;;;;;;;;68.00;49.67;;;;;-143.90;100.00;75715.97;4954316;28;102585;-73
2024/02/25 00:48:20;;;;;;;;;62.67;49.33;;;;;-143.90;100.00;75674.63;4967141;28;101929;-74
2024/02/25 00:50:47;;;;;;;;;56.00;44.33;;;;;-143.90;100.00;75643.63;4976413;28;101563;-74
2024/02/25 00:53:16;;;;;;;;;58.00;46.33;;;;;-143.90;100.00;75598.13;4967154;28;103430;-72
2024/02/25 00:55:43;;;;;;;;;49.00;39.67;;;;;-143.90;100.00;75579.53;4979271;28;101804;-72
2024/02/25 00:58:10;;;;;;;;;47.33;38.33;;;;;-143.90;100.00;75548.50;4969672;28;101943;-73
2024/02/25 01:00:36;;;;;;;;;61.33;44.33;;;;;-143.90;100.00;75523.69;4980492;28;101617;-73
2024/02/25 01:03:04;;;;;;;;;62.33;48.67;;;;;-143.90;100.00;75503.03;4960758;28;103431;-73
2024/02/25 01:05:31;;;;;;;;;59.67;44.00;;;;;-143.90;100.00;75478.22;4976089;28;101876;-73
2024/02/25 01:07:57;;;;;;;;;54.00;42.33;;;;;-143.90;100.00;75467.88;4977583;28;101731;-74
2024/02/25 01:10:24;;;;;;;;;55.00;42.00;;;;;-143.90;100.00;75453.41;4977496;28;101776;-74
2024/02/25 01:12:51;;;;;;;;;49.00;42.00;;;;;-143.90;100.00;75441.00;4968491;28;105207;-74
2024/02/25 01:15:17;;;;;;;;;51.67;41.00;;;;;-143.90;100.00;75428.59;4968720;28;104212;-74
2024/02/25 01:17:44;;;;;;;;;51.00;42.67;;;;;-143.90;100.00;75414.13;4969135;28;101702;-74
2024/02/25 01:20:11;;;;;;;;;55.00;40.67;;;;;-143.90;100.00;75399.63;4970900;28;101802;-74
2024/02/25 01:22:38;;;;;;;;;52.00;41.00;;;;;-143.90;100.00;75393.44;4961649;28;103950;-74
2024/02/25 01:25:05;;;;;;;;;51.33;39.67;;;;;-143.90;100.00;75383.09;4964377;28;101540;-74
2024/02/25 01:27:35;;;;;;;;;47.00;38.00;;;;;-143.90;100.00;75374.84;4720136;28;10001231;-74
2024/02/25 01:30:03;;;;;;;;;44.50;36.25;;;;;-143.90;100.00;75397.56;4976854;28;101763;-74
2024/02/25 01:32:30;;;;;;;;;37.00;30.50;;;;;-143.90;100.00;75420.31;4967867;28;103396;-74
2024/02/25 01:34:57;;;;;;;;;39.25;32.50;;;;;-143.90;100.00;75443.06;4966313;28;101895;-74
2024/02/25 01:37:23;;;;;;;;;54.33;43.67;;;;;-143.90;100.00;75503.03;4959787;28;101510;-74
2024/02/25 01:39:50;;;;;;;;;62.67;47.67;;;;;-143.90;100.00;75523.69;4976855;28;101604;-74
2024/02/25 01:42:21;;;;;;;;;60.00;44.67;;;;;-143.90;100.00;75536.09;4966017;28;103409;-74
2024/02/25 01:44:58;;;;;;;;;40.25;33.75;;;;;-143.90;100.00;75536.09;4974377;28;101953;-74
2024/02/25 01:47:25;;;;;;;;;37.50;35.75;;;;;-143.90;100.00;75544.38;4964230;28;101750;-73
2024/02/25 01:49:52;;;;;;;;;44.25;36.00;;;;;-143.90;100.00;75558.84;4971359;28;101760;-74
2024/02/25 01:52:20;;;;;;;;;64.67;51.00;;;;;-143.90;100.00;75589.84;4963260;28;103378;-74
2024/02/25 01:54:49;;;;;;;;;52.67;40.67;;;;;-143.90;100.00;75585.72;4967084;28;102300;-74
2024/02/25 01:57:17;;;;;;;;;52.00;39.67;;;;;-143.90;100.00;75587.78;4966719;28;102560;-74
2024/02/25 01:59:44;;;;;;;;;38.50;32.00;;;;;-143.90;100.00;75581.59;4960927;28;101872;-73
2024/02/25 02:02:14;;;;;;;;;40.00;28.50;;;;;-143.90;100.00;75585.72;4964292;28;103378;-74
2024/02/25 02:04:42;;;;;;;;;28.00;25.00;;;;;-143.90;100.00;75596.06;4970095;28;101919;-74
2024/02/25 02:07:09;;;;;;;;;29.00;21.00;;;;;-143.90;100.00;75600.19;4972847;28;101570;-74
2024/02/25 02:09:36;;;;;;;;;21.25;19.25;;;;;-143.90;100.00;75606.41;4969856;28;101531;-74
2024/02/25 02:12:03;;;;;;;;;22.75;16.75;;;;;-143.90;100.00;75622.94;4968213;28;103577;-74
2024/02/25 02:14:30;;;;;;;;;20.00;18.25;;;;;-143.90;100.00;75627.06;4971841;28;101591;-74
2024/02/25 02:16:58;;;;;;;;;19.75;16.75;;;;;-143.90;100.00;75629.13;4974726;28;102396;-73
2024/02/25 02:19:25;;;;;;;;;33.25;27.25;;;;;-143.90;100.00;75633.28;4957857;28;102941;-73
2024/02/25 02:21:54;;;;;;;;;27.50;24.25;;;;;-143.90;100.00;75631.22;4971228;28;103369;-73
2024/02/25 02:24:21;;;;;;;;;15.75;14.50;;;;;-143.90;100.00;75643.63;4956377;28;103228;-74
2024/02/25 02:26:48;;;;;;;;;46.67;37.33;;;;;-143.90;100.00;75651.88;4960564;28;101508;-74
2024/02/25 02:29:15;;;;;;;;;29.50;28.25;;;;;-143.90;100.00;75658.09;4959225;28;102551;-74
2024/02/25 02:31:42;;;;;;;;;26.25;22.25;;;;;-143.90;100.00;75668.44;4971811;28;103840;-74
2024/02/25 02:34:08;;;;;;;;;21.50;21.00;;;;;-143.90;100.00;75678.75;4966404;28;102126;-74
2024/02/25 02:36:35;;;;;;;;;33.50;28.25;;;;;-143.90;100.00;75689.09;4977974;28;101818;-74
2024/02/25 02:39:04;;;;;;;;;29.25;25.50;;;;;-143.90;100.00;75684.97;4963591;28;101844;-74
2024/02/25 02:41:32;;;;;;;;;42.67;38.00;;;;;-143.90;100.00;75701.50;4970517;28;103540;-74
2024/02/25 02:43:59;;;;;;;;;48.33;41.00;;;;;-143.90;100.00;75713.91;4968859;28;101843;-74
2024/02/25 02:46:26;;;;;;;;;50.33;42.00;;;;;-143.90;100.00;75726.31;4967560;28;101428;-74
2024/02/25 02:48:52;;;;;;;;;49.00;35.00;;;;;-143.90;100.00;75724.25;4969492;28;101772;-74
2024/02/25 02:51:19;;;;;;;;;64.00;48.33;;;;;-143.90;100.00;75736.66;4972099;28;103714;-74
2024/02/25 02:53:46;;;;;;;;;52.33;42.67;;;;;-143.90;100.00;75734.59;4977507;28;101772;-74
2024/02/25 02:56:13;;;;;;;;;66.00;53.00;;;;;-143.90;100.00;75738.72;4967606;28;102036;-74
2024/02/25 02:58:40;;;;;;;;;67.00;53.00;;;;;-143.90;100.00;75738.72;4970686;28;101928;-74
2024/02/25 03:01:06;;;;;;;;;66.00;50.00;;;;;-143.90;100.00;75738.72;4974639;28;103590;-74
2024/02/25 03:03:33;;;;;;;;;66.67;49.33;;;;;-143.90;100.00;75747.00;4973710;28;101761;-74
2024/02/25 03:06:00;;;;;;;;;52.00;41.33;;;;;-143.90;100.00;75757.34;4973567;28;101775;-74
2024/02/25 03:08:27;;;;;;;;;63.67;49.00;;;;;-143.90;100.00;75773.88;4976007;28;101695;-74
2024/02/25 03:10:53;;;;;;;;;74.67;57.33;;;;;-143.90;100.00;75792.50;4971679;28;103350;-74
2024/02/25 03:13:20;;;;;;;;;75.67;55.33;;;;;-143.90;100.00;75800.75;4964512;28;102161;-72
2024/02/25 03:15:47;;;;;;;;;62.00;45.00;;;;;-143.90;100.00;75811.09;4974067;28;101648;-74
2024/02/25 03:18:14;;;;;;;;;71.67;52.67;;;;;-143.90;100.00;75833.84;4966307;28;101439;-74
2024/02/25 03:20:42;;;;;;;;;73.00;55.00;;;;;-143.90;100.00;75846.25;4971116;28;109084;-74
2024/02/25 03:23:09;;;;;;;;;72.67;51.33;;;;;-143.90;100.00;75854.53;4969681;28;102278;-74
2024/02/25 03:25:36;;;;;;;;;70.67;52.67;;;;;-143.90;100.00;75866.94;4973018;28;101745;-74
2024/02/25 03:28:03;;;;;;;;;33.67;18.67;;;;;-143.90;100.00;75866.94;4976971;28;102258;-74
2024/02/25 03:30:29;;;;;;;;;44.33;38.00;;;;;-143.90;100.00;75862.78;4968557;28;103510;-74
2024/02/25 03:33:00;;;;;;;;;44.67;34.67;;;;;-143.90;100.00;75854.53;4982699;28;102063;-74
2024/02/25 03:35:31;;;;;;;;;32.00;27.33;;;;;-143.90;100.00;75852.44;4968255;28;101743;-74
2024/02/25 03:38:00;;;;;;;;;21.00;18.67;;;;;-143.90;100.00;75856.59;4982458;28;102301;-74
2024/02/25 03:40:26;;;;;;;;;23.00;20.75;;;;;-143.90;100.00;75862.78;4978784;28;103467;-74
2024/02/25 03:42:53;;;;;;;;;18.00;17.75;;;;;-143.90;100.00;75875.19;4975952;28;101447;-73
2024/02/25 03:45:20;;;;;;;;;18.75;15.50;;;;;-143.90;100.00;75891.75;4962632;28;102023;-73
2024/02/25 03:47:48;;;;;;;;;14.50;13.50;;;;;-143.90;100.00;75891.75;4977206;28;102853;-73
2024/02/25 03:50:15;;;;;;;;;12.00;9.75;;;;;-143.90;100.00;75895.88;4967953;28;103429;-73
2024/02/25 03:52:42;;;;;;;;;14.25;13.00;;;;;-143.90;100.00;75900.00;4985879;28;101766;-73
2024/02/25 03:55:09;;;;;;;;;19.75;16.00;;;;;-143.90;100.00;75897.94;4966848;28;102466;-73
2024/02/25 03:57:37;;;;;;;;;14.00;13.50;;;;;-143.90;100.00;75889.66;4982771;28;101654;-73
2024/02/25 04:00:08;;;;;;;;;34.67;28.33;;;;;-143.90;100.00;75889.66;4973215;28;103519;-73
2024/02/25 04:02:36;;;;;;;;;69.33;55.33;;;;;-143.90;100.00;75889.66;4977049;28;102286;-73
2024/02/25 04:05:04;;;;;;;;;71.00;52.33;;;;;-143.90;100.00;75881.41;4970279;28;105782;-73
2024/02/25 04:07:32;;;;;;;;;65.00;45.33;;;;;-143.90;100.00;75875.19;4965427;28;101683;-73
2024/02/25 04:09:59;;;;;;;;;42.00;34.00;;;;;-143.90;100.00;75869.00;4962229;28;103417;-73
2024/02/25 04:12:25;;;;;;;;;46.33;36.67;;;;;-143.90;100.00;75866.94;4977924;28;101980;-73
2024/02/25 04:14:52;;;;;;;;;33.67;28.67;;;;;-143.90;100.00;75869.00;4974035;28;101804;-73
2024/02/25 04:17:19;;;;;;;;;38.33;30.33;;;;;-143.90;100.00;75866.94;4975193;28;101939;-73
2024/02/25 04:19:46;;;;;;;;;30.00;25.67;;;;;-143.90;100.00;75862.78;4975852;28;103611;-73
2024/02/25 04:22:13;;;;;;;;;23.33;22.00;;;;;-143.90;100.00;75858.66;4976274;28;101864;-73
2024/02/25 04:24:39;;;;;;;;;22.25;18.75;;;;;-143.90;100.00;75852.44;4967359;28;102884;-73
2024/02/25 04:27:06;;;;;;;;;17.75;16.75;;;;;-143.90;100.00;75858.66;4966377;28;101930;-73
2024/02/25 04:29:33;;;;;;;;;17.00;15.25;;;;;-143.90;100.00;75850.38;4972207;28;103439;-73
2024/02/25 04:32:00;;;;;;;;;22.50;18.00;;;;;-143.90;100.00;75854.53;4969425;28;102166;-73
2024/02/25 04:34:26;;;;;;;;;23.50;18.25;;;;;-143.90;100.00;75858.66;4971983;28;101448;-73
2024/02/25 04:36:53;;;;;;;;;14.25;13.25;;;;;-143.90;100.00;75879.34;4967134;28;101438;-73
2024/02/25 04:39:20;;;;;;;;;15.75;15.00;;;;;-143.90;100.00;75887.59;4962342;28;103084;-73
2024/02/25 04:41:47;;;;;;;;;65.33;44.00;;;;;-143.90;100.00;75904.16;4976832;28;102103;-73
2024/02/25 04:44:13;;;;;;;;;74.67;55.33;;;;;-143.90;100.00;75920.69;4969650;28;101768;-73
2024/02/25 04:46:42;;;;;;;;;67.67;52.67;;;;;-143.90;100.00;75912.41;4976141;28;101834;-73
2024/02/25 04:49:09;;;;;;;;;49.67;42.33;;;;;-143.90;100.00;75916.56;4962381;28;103417;-74
2024/02/25 04:51:36;;;;;;;;;52.00;40.33;;;;;-143.90;100.00;75910.34;4976594;28;101669;-73
2024/02/25 04:54:03;;;;;;;;;40.33;32.33;;;;;-143.90;100.00;75904.16;4965471;28;101558;-73
2024/02/25 04:56:30;;;;;;;;;32.33;25.67;;;;;-143.90;100.00;75908.28;4969096;28;101805;-73
2024/02/25 04:58:57;;;;;;;;;26.00;21.67;;;;;-143.90;100.00;75912.41;4977023;28;103416;-73
2024/02/25 05:01:24;;;;;;;;;27.75;20.75;;;;;-143.90;100.00;75910.34;4962228;28;101868;-73
2024/02/25 05:03:50;;;;;;;;;25.00;22.33;;;;;-143.90;100.00;75910.34;4972507;28;103259;-73
2024/02/25 05:06:17;;;;;;;;;59.67;46.67;;;;;-143.90;100.00;75920.69;4965127;28;101699;-73
2024/02/25 05:08:44;;;;;;;;;43.33;37.67;;;;;-143.90;100.00;75920.69;4973340;28;103506;-73
2024/02/25 05:11:11;;;;;;;;;47.33;35.33;;;;;-143.90;100.00;75908.28;4962871;28;102094;-73
2024/02/25 05:13:37;;;;;;;;;43.33;36.33;;;;;-143.90;100.00;75902.06;4970640;28;101729;-73
2024/02/25 05:16:06;;;;;;;;;31.00;28.00;;;;;-143.90;100.00;75902.06;4979022;28;101705;-73
2024/02/25 05:18:33;;;;;;;;;25.33;20.00;;;;;-143.90;100.00;75904.16;4975697;28;103373;-73
2024/02/25 05:21:01;;;;;;;;;71.33;56.33;;;;;-143.90;100.00;75926.88;4980195;28;101810;-73
2024/02/25 05:23:28;;;;;;;;;74.00;57.67;;;;;-143.90;100.00;75941.38;4964852;28;101567;-73
2024/02/25 05:25:55;;;;;;;;;75.33;56.00;;;;;-143.90;100.00;75955.84;4974614;28;101549;-73
2024/02/25 05:28:22;;;;;;;;;66.33;50.67;;;;;-143.90;100.00;75949.63;4969482;28;103460;-73
2024/02/25 05:30:49;;;;;;;;;63.33;45.67;;;;;-143.90;100.00;75945.50;4972932;28;101824;-73
2024/02/25 05:33:16;;;;;;;;;62.33;46.00;;;;;-143.90;100.00;75945.50;4967765;28;101736;-73
2024/02/25 05:35:42;;;;;;;;;54.33;42.00;;;;;-143.90;100.00;75933.09;4974913;28;101893;-73
2024/02/25 05:38:09;;;;;;;;;57.67;44.00;;;;;-143.90;100.00;75928.97;4968533;28;103553;-73
2024/02/25 05:40:40;;;;;;;;;73.67;52.67;;;;;-143.90;100.00;75916.56;4971334;28;101904;-73
2024/02/25 05:43:07;;;;;;;;;65.00;48.00;;;;;-143.90;100.00;75918.63;4967162;28;101627;-74
2024/02/25 05:45:34;;;;;;;;;52.67;42.00;;;;;-143.90;100.00;75908.28;4967543;28;101615;-72
2024/02/25 05:48:01;;;;;;;;;61.33;40.67;;;;;-143.90;100.00;75904.16;4975980;28;104667;-73
2024/02/25 05:50:28;;;;;;;;;62.33;50.00;;;;;-143.90;100.00;75895.88;4971165;28;102036;-73
2024/02/25 05:52:55;;;;;;;;;66.00;47.67;;;;;-143.90;100.00;75897.94;4971628;28;101643;-73
2024/02/25 05:55:21;;;;;;;;;64.00;50.33;;;;;-143.90;100.00;75897.94;4965994;28;101811;-73
2024/02/25 05:57:48;;;;;;;;;60.00;46.33;;;;;-143.90;100.00;75900.00;4970767;28;103593;-73
2024/02/25 06:00:15;;;;;;;;;60.33;41.67;;;;;-143.90;100.00;75895.88;4976972;28;101823;-73
2024/02/25 06:02:45;;;;;;;;;48.33;36.33;;;;;-143.90;100.00;75891.75;4968496;28;101759;-73
2024/02/25 06:05:16;;;;;;;;;35.33;32.33;;;;;-143.90;100.00;75893.81;4968138;28;101737;-73
2024/02/25 06:07:43;;;;;;;;;46.00;39.33;;;;;-143.90;100.00;75891.75;4968827;28;107804;-73
2024/02/25 06:10:10;;;;;;;;;54.00;41.67;;;;;-143.90;100.00;75887.59;4961911;28;102035;-73
2024/02/25 06:12:38;;;;;;;;;47.33;34.67;;;;;-143.90;100.00;75889.66;4982130;28;102056;-73
2024/02/25 06:15:11;;;;;;;;;63.67;50.67;;;;;-143.90;100.00;75895.88;4966874;28;104797;-73
2024/02/25 06:17:40;;;;;;;;;70.33;51.00;;;;;-143.90;100.00;75895.88;4974334;28;103383;-73
2024/02/25 06:20:09;;;;;;;;;42.67;39.00;;;;;-143.90;100.00;75883.47;4972494;28;101837;-74
2024/02/25 06:22:41;;;;;;;;;38.33;32.33;;;;;-143.90;100.00;75875.19;4976974;28;101720;-73
2024/02/25 06:25:08;;;;;;;;;30.67;24.33;;;;;-143.90;100.00;75860.72;4967152;28;101609;-73
2024/02/25 06:27:36;;;;;;;;;23.67;21.00;;;;;-143.90;100.00;75848.31;4977741;28;103489;-73
2024/02/25 06:30:07;;;;;;;;;19.25;17.75;;;;;-143.90;100.00;75833.84;4975752;28;101669;-73
2024/02/25 06:32:35;;;;;;;;;13.75;13.00;;;;;-143.90;100.00;75809.03;4955536;28;101888;-73
2024/02/25 06:35:03;;;;;;;;;18.25;13.00;;;;;-143.90;100.00;75792.50;4973972;28;101891;-73
2024/02/25 06:37:31;;;;;;;;;13.25;11.00;;;;;-143.90;100.00;75765.59;4966613;28;103751;-73
2024/02/25 06:39:58;;;;;;;;;14.00;9.25;;;;;-143.90;100.00;75742.88;4967576;28;101865;-74
2024/02/25 06:42:24;;;;;;;;;14.00;10.75;;;;;-143.90;100.00;75718.06;4968789;28;103793;-74
2024/02/25 06:44:51;;;;;;;;;14.00;12.50;;;;;-143.90;100.00;75697.38;4976011;28;101902;-74
2024/02/25 06:47:18;;;;;;;;;15.00;12.75;;;;;-143.90;100.00;75672.56;4960382;28;103390;-74
2024/02/25 06:49:44;;;;;;;;;10.00;10.00;;;;;-143.90;100.00;75647.75;4981311;28;101495;-74
2024/02/25 06:52:12;;;;;;;;;9.25;7.00;;;;;-143.90;100.00;75618.81;4975428;28;101834;-74
2024/02/25 06:54:41;;;;;;;;;7.00;6.00;;;;;-143.90;100.00;75602.25;4981337;28;101696;-74
2024/02/25 06:57:08;;;;;;;;;7.00;5.75;;;;;-143.90;100.00;75569.19;4964873;28;103717;-74
2024/02/25 06:59:35;;;;;;;;;11.50;11.00;;;;;-143.90;100.00;75550.56;4963350;28;101966;-74
2024/02/25 07:02:02;;;;;;;;;7.25;6.50;;;;;-143.90;100.00;75515.41;4972978;28;101663;-74
2024/02/25 07:04:29;;;;;;;;;8.00;8.00;;;;;-143.90;100.00;75492.69;4969601;28;102746;-74
2024/02/25 07:06:56;;;;;;;;;10.00;8.25;;;;;-143.90;100.00;75465.81;4968882;28;103348;-73
2024/02/25 07:09:23;;;;;;;;;10.75;7.75;;;;;-143.90;100.00;75438.94;4964601;28;101877;-73
2024/02/25 07:11:50;;;;;;;;;10.25;8.75;;;;;-143.90;100.00;75412.03;4972675;28;101692;-73
2024/02/25 07:14:18;;;;;;;;;13.50;11.50;;;;;-143.90;100.00;75374.84;4977283;28;102549;-73
2024/02/25 07:16:45;;;;;;;;;11.00;9.75;;;;;-143.90;100.00;75341.75;4972819;28;107957;-73
2024/02/25 07:19:11;;;;;;;;;11.50;10.00;;;;;-143.90;100.00;75325.22;4959790;28;101784;-74
2024/02/25 07:21:38;;;;;;;;;10.00;9.25;;;;;-143.90;100.00;75304.53;4971480;28;101897;-74
2024/02/25 07:24:05;;;;;;;;;17.00;12.75;;;;;-143.90;100.00;75271.47;4980057;28;101775;-73
2024/02/25 07:26:32;;;;;;;;;33.25;27.75;;;;;-143.90;100.00;75250.78;4975498;28;103764;-73
2024/02/25 07:28:59;;;;;;;;;14.75;13.50;;;;;-143.90;100.00;75230.09;4960654;28;108314;-73
2024/02/25 07:31:26;;;;;;;;;17.00;13.75;;;;;-143.90;100.00;75213.56;4965741;28;101731;-73
2024/02/25 07:33:52;;;;;;;;;12.50;12.00;;;;;-143.90;100.00;75192.91;4978246;28;101947;-73
2024/02/25 07:36:19;;;;;;;;;18.50;14.50;;;;;-143.90;100.00;75174.28;4962519;28;103426;-73
2024/02/25 07:38:46;;;;;;;;;20.00;16.75;;;;;-143.90;100.00;75143.28;4980060;28;101412;-74
2024/02/25 07:41:13;;;;;;;;;31.25;27.00;;;;;-143.90;100.00;75120.53;4967170;28;101834;-73
2024/02/25 07:43:40;;;;;;;;;29.25;26.25;;;;;-143.90;100.00;75097.78;4965797;28;101837;-74
2024/02/25 07:46:07;;;;;;;;;37.75;31.75;;;;;-143.90;100.00;75085.38;4967705;28;103462;-72
2024/02/25 07:48:33;;;;;;;;;19.25;16.00;;;;;-143.90;100.00;75068.84;4947751;28;102316;-73
2024/02/25 07:51:00;;;;;;;;;19.50;17.25;;;;;-143.90;100.00;75046.09;4970418;28;102523;-73
2024/02/25 07:53:28;;;;;;;;;17.75;15.00;;;;;-143.90;100.00;75021.31;4967080;28;102356;-73
2024/02/25 07:55:55;;;;;;;;;16.00;13.25;;;;;-143.90;100.00;75002.69;4975111;28;103358;-73
2024/02/25 07:58:21;;;;;;;;;19.50;15.00;;;;;-143.90;100.00;74984.09;4963615;28;101619;-73
2024/02/25 08:00:48;;;;;;;;;24.25;21.50;;;;;-143.90;100.00;74977.88;4977076;28;102002;-73
2024/02/25 08:03:15;;;;;;;;;20.00;19.00;;;;;-143.90;100.00;74961.34;4969722;28;101791;-74
2024/02/25 08:05:43;;;;;;;;;22.25;18.75;;;;;-143.90;100.00;74951.00;4976386;28;103683;-74
2024/02/25 08:08:10;;;;;;;;;18.75;15.75;;;;;-143.90;100.00;74926.22;4978278;28;101559;-73
2024/02/25 08:10:41;;;;;;;;;20.50;17.00;;;;;-143.90;100.00;74911.72;4969048;28;101856;-74
2024/02/25 08:13:07;;;;;;;;;24.75;19.50;;;;;-143.90;100.00;74903.47;4970057;28;102751;-74
2024/02/25 08:15:34;;;;;;;;;25.25;21.75;;;;;-143.90;100.00;74903.47;4969356;28;103899;-74
2024/02/25 08:18:01;;;;;;;;;26.00;20.00;;;;;-143.90;100.00;74895.19;4972412;28;105894;-74
2024/02/25 08:20:28;;;;;;;;;19.00;17.75;;;;;-143.90;100.00;74876.59;4964663;28;101827;-72
2024/02/25 08:22:55;;;;;;;;;18.25;16.50;;;;;-143.90;100.00;74870.38;4971872;28;102061;-73
2024/02/25 08:25:21;;;;;;;;;25.00;22.50;;;;;-143.90;100.00;74853.84;4965231;28;103471;-74
2024/02/25 08:27:48;;;;;;;;;24.50;23.00;;;;;-143.90;100.00;74839.38;4979621;28;102007;-75
2024/02/25 08:30:15;;;;;;;;;19.00;18.00;;;;;-143.90;100.00;74816.66;4974962;28;101468;-75
2024/02/25 08:32:42;;;;;;;;;19.25;18.00;;;;;-143.90;100.00;74808.38;4977010;28;101575;-74
2024/02/25 08:35:08;;;;;;;;;16.50;14.00;;;;;-143.90;100.00;74795.97;4970206;28;103356;-74
2024/02/25 08:37:35;;;;;;;;;14.25;13.75;;;;;-143.90;100.00;74779.44;4964899;28;101742;-75
2024/02/25 08:40:02;;;;;;;;;13.75;13.00;;;;;-143.90;100.00;74754.63;4965955;28;101713;-75
2024/02/25 08:42:29;;;;;;;;;17.25;15.00;;;;;-143.90;100.00;74748.44;4973449;28;101826;-75
2024/02/25 08:44:55;;;;;;;;;15.50;11.75;;;;;-143.90;70.15;74733.97;4975202;28;103501;-75
2024/02/25 08:47:22;;;;;;;;;11.25;10.00;;;;;-143.90;71.14;74721.56;4964999;28;101725;-74
2024/02/25 08:49:50;;;;;;;;;8.00;7.50;;;;;-143.90;69.49;74709.16;4974594;28;101536;-74
2024/02/25 08:52:18;;;;;;;;;14.75;12.25;;;;;-143.90;67.21;74705.00;4980834;28;101840;-74
2024/02/25 08:54:45;;;;;;;;;13.50;12.75;;;;;-143.90;68.31;74688.47;4979269;28;103716;-74
2024/02/25 08:57:12;;;;;;;;;11.50;9.50;;;;;-143.90;66.22;74671.94;4969177;28;101769;-73
2024/02/25 08:59:39;;;;;;;;;15.25;12.50;;;;;-143.90;64.99;74663.66;4964418;28;101677;-74
2024/02/25 09:02:06;;;;;;;;;10.25;9.00;;;;;-143.90;64.55;74665.75;4977622;28;102190;-73
2024/02/25 09:04:33;;;;;;;;;10.50;9.25;;;;;-143.90;63.22;74665.75;4975646;28;104424;-73
2024/02/25 09:07:01;;;;;;;;;9.75;7.25;;;;;-143.90;63.66;74667.81;4966331;28;102481;-73
2024/02/25 09:09:27;;;;;;;;;9.75;7.00;;;;;-143.90;64.23;74671.94;4970578;28;102374;-74
2024/02/25 09:11:54;;;;;;;;;9.25;7.50;;;;;-143.90;61.84;74671.94;4976914;28;102286;-73
2024/02/25 09:14:21;;;;;;;;;7.00;7.00;;;;;-143.90;62.11;74667.81;4970067;28;103382;-73
2024/02/25 09:16:48;;;;;;;;;8.00;6.00;;;;;-143.90;64.02;74655.41;4967529;28;101540;-73
2024/02/25 09:19:15;;;;;;;;;9.00;8.25;;;;;-143.90;63.29;74645.06;4965423;28;101418;-73
2024/02/25 09:21:42;;;;;;;;;9.75;8.00;;;;;-143.90;63.27;74632.66;4975093;28;101647;-73
2024/02/25 09:24:09;;;;;;;;;8.25;7.25;;;;;-143.90;62.08;74620.25;4973623;28;103577;-74
2024/02/25 09:26:36;;;;;;;;;10.50;9.50;;;;;-143.90;60.18;74622.34;4962758;28;102794;-74
2024/02/25 09:29:03;;;;;;;;;9.50;9.00;;;;;-143.90;61.48;74607.84;4963136;28;102462;-74
2024/02/25 09:31:30;;;;;;;;;13.25;11.50;;;;;-143.90;59.89;74601.66;4960556;28;104731;-74
2024/02/25 09:33:58;;;;;;;;;6.50;4.50;;;;;-143.90;57.84;74593.38;4974123;28;105293;-73
2024/02/25 09:36:26;;;;;;;;;5.00;5.00;;;;;-143.90;55.04;74581.00;4968795;28;101544;-73
2024/02/25 09:38:53;;;;;;;;;5.00;5.00;;;;;-143.90;56.12;74560.31;4966732;28;101345;-73
2024/02/25 09:41:30;;;;;;;;;4.50;4.00;;;;;-143.90;56.42;74539.66;4972001;28;101719;-73
2024/02/25 09:43:56;;;;;;;;;3.00;3.00;;;;;-143.90;53.64;74516.91;4965629;28;109746;-73
2024/02/25 09:46:24;;;;;;;;;4.00;3.00;;;;;-143.90;53.12;74494.16;4901274;28;102773;-74
2024/02/25 09:48:52;;;;;;;;;3.00;2.25;;;;;-143.90;51.44;74477.63;4928026;28;103124;-73
2024/02/25 09:51:23;;;;;;;;;6.50;5.25;;;;;-143.90;50.75;74461.09;4920441;28;102826;-74
2024/02/25 09:53:52;;;;;;;;;4.00;2.75;;;;;-143.90;51.60;74446.63;4937416;28;109390;-73
2024/02/25 09:56:20;;;;;;;;;2.75;2.00;;;;;-143.90;49.67;74428.03;4950618;28;102795;-72
2024/02/25 09:58:48;;;;;;;;;4.25;3.00;;;;;-143.90;50.54;74405.28;4934844;28;102711;-73
2024/02/25 10:01:15;;;;;;;;;2.50;2.50;;;;;-143.90;49.89;74384.63;4962867;28;102774;-73
2024/02/25 10:03:42;;;;;;;;;5.00;4.00;;;;;-143.90;47.58;74386.69;4971508;28;103385;-73
2024/02/25 10:06:10;;;;;;;;;3.00;2.50;;;;;-143.90;46.79;74382.56;4959349;28;103121;-73
2024/02/25 10:08:48;;;;;;;;;4.00;3.50;;;;;-143.90;45.88;74390.81;4931925;28;103230;-73
2024/02/25 10:11:15;;;;;;;;;2.25;2.00;;;;;-143.90;46.51;74374.28;4930986;28;102927;-73
2024/02/25 10:13:46;;;;;;;;;2.75;2.50;;;;;-143.90;46.00;74370.16;4926150;28;103859;-73
2024/02/25 10:16:20;;;;;;;;;2.00;2.00;;;;;-143.90;46.49;74366.00;4922266;28;103003;-73
2024/02/25 10:18:51;;;;;;;;;2.75;1.75;;;;;-143.90;46.90;74343.28;4958881;28;102580;-74
2024/02/25 10:21:18;;;;;;;;;4.50;2.00;;;;;-143.90;45.89;74324.69;4962973;28;102349;-73
2024/02/25 10:23:51;;;;;;;;;4.00;4.00;;;;;-143.90;46.92;74349.47;4964135;28;103803;-74
2024/02/25 10:26:20;;;;;;;;;3.25;3.25;;;;;-143.90;45.74;74339.16;4971013;28;105159;-73
2024/02/25 10:28:47;;;;;;;;;4.00;4.00;;;;;-143.90;46.95;74330.88;4964741;28;104162;-73
2024/02/25 10:31:17;;;;;;;;;4.00;3.00;;;;;-143.90;46.61;74324.69;4974442;28;102223;-73
2024/02/25 10:33:44;;;;;;;;;4.25;3.75;;;;;-143.90;47.15;74324.69;4976600;28;103845;-72
2024/02/25 10:36:13;;;;;;;;;5.75;4.75;;;;;-143.90;44.85;74310.22;4962220;28;101855;-72
2024/02/25 10:38:41;;;;;;;;;3.00;3.00;;;;;-143.90;46.68;74289.53;4974940;28;102271;-73
2024/02/25 10:41:09;;;;;;;;;4.00;3.00;;;;;-143.90;46.55;74304.00;4973275;28;102052;-73
2024/02/25 10:43:39;;;;;;;;;3.00;3.00;;;;;-143.90;46.38;74295.75;4975849;28;103780;-72
2024/02/25 10:46:24;;;;;;;;;3.75;2.00;;;;;-143.90;47.17;74281.28;4975435;28;101650;-73
2024/02/25 10:48:53;;;;;;;;;5.00;3.25;;;;;-143.90;45.92;74283.34;4962238;28;101741;-73
2024/02/25 10:51:21;;;;;;;;;2.25;2.25;;;;;-143.90;46.53;74254.41;4965676;28;101980;-73
2024/02/25 10:53:48;;;;;;;;;5.00;4.00;;;;;-143.90;45.52;74254.41;4961883;28;107948;-73